sensor_id;sensor_type;location;lat;lon;timestamp;P1;durP1;ratioP1;P2;durP2;ratioP2
36799;SDS011;22752;51.960;5.886;2022-09-12T00:01:21;15.93;;;11.20;;
36799;SDS011;22752;51.960;5.886;2022-09-12T00:03:53;13.40;;;10.57;;
36799;SDS011;22752;51.960;5.886;2022-09-12T00:06:22;11.20;;;9.73;;
36799;SDS011;22752;51.960;5.886;2022-09-12T00:08:50;13.00;;;10.48;;
36799;SDS011;22752;51.960;5.886;2022-09-12T00:11:18;12.50;;;11.23;;
36799;SDS011;22752;51.960;5.886;2022-09-12T00:13:44;13.73;;;10.20;;
36799;SDS011;22752;51.960;5.886;2022-09-12T00:16:14;11.82;;;10.70;;
36799;SDS011;22752;51.960;5.886;2022-09-12T00:18:41;11.02;;;9.93;;
36799;SDS011;22752;51.960;5.886;2022-09-12T00:21:07;13.27;;;11.65;;
36799;SDS011;22752;51.960;5.886;2022-09-12T00:23:33;11.68;;;10.48;;
36799;SDS011;22752;51.960;5.886;2022-09-12T00:25:59;12.32;;;11.02;;
36799;SDS011;22752;51.960;5.886;2022-09-12T00:28:27;13.10;;;10.85;;
36799;SDS011;22752;51.960;5.886;2022-09-12T00:30:53;13.38;;;11.45;;
36799;SDS011;22752;51.960;5.886;2022-09-12T00:33:19;22.45;;;13.27;;
36799;SDS011;22752;51.960;5.886;2022-09-12T00:35:46;14.48;;;12.98;;
36799;SDS011;22752;51.960;5.886;2022-09-12T00:38:13;13.95;;;11.98;;
36799;SDS011;22752;51.960;5.886;2022-09-12T00:40:41;12.18;;;10.98;;
36799;SDS011;22752;51.960;5.886;2022-09-12T00:43:11;12.57;;;11.27;;
36799;SDS011;22752;51.960;5.886;2022-09-12T00:45:56;13.65;;;10.63;;
36799;SDS011;22752;51.960;5.886;2022-09-12T00:48:25;12.85;;;10.60;;
36799;SDS011;22752;51.960;5.886;2022-09-12T00:50:59;12.10;;;10.40;;
36799;SDS011;22752;51.960;5.886;2022-09-12T00:53:26;12.88;;;9.70;;
36799;SDS011;22752;51.960;5.886;2022-09-12T00:55:52;13.15;;;10.25;;
36799;SDS011;22752;51.960;5.886;2022-09-12T00:58:27;11.10;;;9.98;;
36799;SDS011;22752;51.960;5.886;2022-09-12T01:00:58;11.63;;;10.43;;
36799;SDS011;22752;51.960;5.886;2022-09-12T01:03:23;11.70;;;9.68;;
36799;SDS011;22752;51.960;5.886;2022-09-12T01:08:31;21.08;;;11.80;;
36799;SDS011;22752;51.960;5.886;2022-09-12T01:11:01;13.35;;;10.45;;
36799;SDS011;22752;51.960;5.886;2022-09-12T01:13:27;11.20;;;9.75;;
36799;SDS011;22752;51.960;5.886;2022-09-12T01:15:53;11.88;;;10.35;;
36799;SDS011;22752;51.960;5.886;2022-09-12T01:18:24;14.65;;;11.10;;
36799;SDS011;22752;51.960;5.886;2022-09-12T01:21:15;11.85;;;10.00;;
36799;SDS011;22752;51.960;5.886;2022-09-12T01:23:47;13.60;;;11.10;;
36799;SDS011;22752;51.960;5.886;2022-09-12T01:32:28;17.00;;;13.10;;
36799;SDS011;22752;51.960;5.886;2022-09-12T01:37:48;17.60;;;14.50;;
36799;SDS011;22752;51.960;5.886;2022-09-12T01:40:28;17.98;;;14.65;;
36799;SDS011;22752;51.960;5.886;2022-09-12T01:43:03;22.35;;;17.40;;
36799;SDS011;22752;51.960;5.886;2022-09-12T01:48:32;23.17;;;18.20;;
36799;SDS011;22752;51.960;5.886;2022-09-12T01:53:49;22.83;;;18.10;;
36799;SDS011;22752;51.960;5.886;2022-09-12T01:56:26;20.42;;;15.77;;
36799;SDS011;22752;51.960;5.886;2022-09-12T01:58:55;17.33;;;15.52;;
36799;SDS011;22752;51.960;5.886;2022-09-12T02:01:35;14.45;;;12.95;;
36799;SDS011;22752;51.960;5.886;2022-09-12T02:04:18;17.98;;;14.30;;
36799;SDS011;22752;51.960;5.886;2022-09-12T02:06:55;16.75;;;13.75;;
36799;SDS011;22752;51.960;5.886;2022-09-12T02:09:40;20.27;;;14.63;;
36799;SDS011;22752;51.960;5.886;2022-09-12T02:12:14;20.02;;;15.13;;
36799;SDS011;22752;51.960;5.886;2022-09-12T02:14:47;17.02;;;14.68;;
36799;SDS011;22752;51.960;5.886;2022-09-12T02:17:26;17.05;;;14.68;;
36799;SDS011;22752;51.960;5.886;2022-09-12T02:19:56;22.70;;;16.35;;
36799;SDS011;22752;51.960;5.886;2022-09-12T02:22:27;17.70;;;15.00;;
36799;SDS011;22752;51.960;5.886;2022-09-12T02:24:58;18.02;;;14.05;;
36799;SDS011;22752;51.960;5.886;2022-09-12T02:27:32;18.02;;;16.05;;
36799;SDS011;22752;51.960;5.886;2022-09-12T02:30:10;21.92;;;17.00;;
36799;SDS011;22752;51.960;5.886;2022-09-12T02:35:46;21.70;;;16.17;;
36799;SDS011;22752;51.960;5.886;2022-09-12T02:38:16;20.63;;;15.45;;
36799;SDS011;22752;51.960;5.886;2022-09-12T02:41:00;20.15;;;15.98;;
36799;SDS011;22752;51.960;5.886;2022-09-12T02:43:26;16.73;;;14.18;;
36799;SDS011;22752;51.960;5.886;2022-09-12T02:45:52;16.40;;;13.65;;
36799;SDS011;22752;51.960;5.886;2022-09-12T02:48:27;15.02;;;12.88;;
36799;SDS011;22752;51.960;5.886;2022-09-12T02:50:58;17.05;;;14.27;;
36799;SDS011;22752;51.960;5.886;2022-09-12T02:53:24;21.63;;;16.75;;
36799;SDS011;22752;51.960;5.886;2022-09-12T02:55:50;18.98;;;14.65;;
36799;SDS011;22752;51.960;5.886;2022-09-12T02:58:18;18.27;;;15.18;;
36799;SDS011;22752;51.960;5.886;2022-09-12T03:01:10;18.48;;;15.48;;
36799;SDS011;22752;51.960;5.886;2022-09-12T03:09:11;16.80;;;15.00;;
36799;SDS011;22752;51.960;5.886;2022-09-12T03:20:28;22.92;;;17.23;;
36799;SDS011;22752;51.960;5.886;2022-09-12T03:23:15;21.60;;;16.15;;
36799;SDS011;22752;51.960;5.886;2022-09-12T03:26:14;18.83;;;15.82;;
36799;SDS011;22752;51.960;5.886;2022-09-12T03:29:00;24.50;;;16.60;;
36799;SDS011;22752;51.960;5.886;2022-09-12T03:31:28;22.27;;;15.75;;
36799;SDS011;22752;51.960;5.886;2022-09-12T03:33:53;20.63;;;16.63;;
36799;SDS011;22752;51.960;5.886;2022-09-12T03:36:23;20.08;;;16.15;;
36799;SDS011;22752;51.960;5.886;2022-09-12T03:38:51;22.50;;;17.65;;
36799;SDS011;22752;51.960;5.886;2022-09-12T03:41:16;22.42;;;17.83;;
36799;SDS011;22752;51.960;5.886;2022-09-12T03:43:42;22.75;;;18.80;;
36799;SDS011;22752;51.960;5.886;2022-09-12T03:46:08;23.77;;;19.13;;
36799;SDS011;22752;51.960;5.886;2022-09-12T03:48:34;20.88;;;17.42;;
36799;SDS011;22752;51.960;5.886;2022-09-12T03:51:05;25.13;;;19.87;;
36799;SDS011;22752;51.960;5.886;2022-09-12T03:53:32;26.92;;;19.27;;
36799;SDS011;22752;51.960;5.886;2022-09-12T03:55:58;25.70;;;18.92;;
36799;SDS011;22752;51.960;5.886;2022-09-12T03:58:24;26.60;;;19.33;;
36799;SDS011;22752;51.960;5.886;2022-09-12T04:00:54;25.10;;;18.58;;
36799;SDS011;22752;51.960;5.886;2022-09-12T04:03:20;30.20;;;22.73;;
36799;SDS011;22752;51.960;5.886;2022-09-12T04:05:46;30.50;;;21.92;;
36799;SDS011;22752;51.960;5.886;2022-09-12T04:08:12;30.33;;;22.35;;
36799;SDS011;22752;51.960;5.886;2022-09-12T04:10:38;29.02;;;21.63;;
36799;SDS011;22752;51.960;5.886;2022-09-12T04:13:04;30.52;;;22.17;;
36799;SDS011;22752;51.960;5.886;2022-09-12T04:15:29;33.53;;;23.92;;
36799;SDS011;22752;51.960;5.886;2022-09-12T04:17:55;32.88;;;23.20;;
36799;SDS011;22752;51.960;5.886;2022-09-12T04:20:20;33.88;;;23.40;;
36799;SDS011;22752;51.960;5.886;2022-09-12T04:22:46;33.47;;;24.05;;
36799;SDS011;22752;51.960;5.886;2022-09-12T04:25:12;33.05;;;22.13;;
36799;SDS011;22752;51.960;5.886;2022-09-12T04:27:38;41.22;;;26.98;;
36799;SDS011;22752;51.960;5.886;2022-09-12T04:30:03;39.13;;;25.60;;
36799;SDS011;22752;51.960;5.886;2022-09-12T04:32:30;37.65;;;26.13;;
36799;SDS011;22752;51.960;5.886;2022-09-12T04:34:56;35.63;;;25.40;;
36799;SDS011;22752;51.960;5.886;2022-09-12T04:37:21;37.80;;;26.42;;
36799;SDS011;22752;51.960;5.886;2022-09-12T04:39:48;38.50;;;25.80;;
36799;SDS011;22752;51.960;5.886;2022-09-12T04:42:14;35.30;;;24.33;;
36799;SDS011;22752;51.960;5.886;2022-09-12T04:44:40;31.38;;;22.13;;
36799;SDS011;22752;51.960;5.886;2022-09-12T04:47:06;33.10;;;22.67;;
36799;SDS011;22752;51.960;5.886;2022-09-12T04:49:31;36.65;;;24.02;;
36799;SDS011;22752;51.960;5.886;2022-09-12T04:51:57;33.05;;;22.35;;
36799;SDS011;22752;51.960;5.886;2022-09-12T04:54:23;41.65;;;27.58;;
36799;SDS011;22752;51.960;5.886;2022-09-12T04:56:49;36.72;;;26.08;;
36799;SDS011;22752;51.960;5.886;2022-09-12T04:59:16;39.65;;;26.00;;
36799;SDS011;22752;51.960;5.886;2022-09-12T05:01:43;44.05;;;28.27;;
36799;SDS011;22752;51.960;5.886;2022-09-12T05:04:10;42.35;;;26.45;;
36799;SDS011;22752;51.960;5.886;2022-09-12T05:06:37;43.97;;;27.17;;
36799;SDS011;22752;51.960;5.886;2022-09-12T05:09:05;47.63;;;27.73;;
36799;SDS011;22752;51.960;5.886;2022-09-12T05:11:33;40.67;;;27.27;;
36799;SDS011;22752;51.960;5.886;2022-09-12T05:14:00;35.63;;;24.20;;
36799;SDS011;22752;51.960;5.886;2022-09-12T05:16:26;41.08;;;24.48;;
36799;SDS011;22752;51.960;5.886;2022-09-12T05:18:54;36.85;;;24.33;;
36799;SDS011;22752;51.960;5.886;2022-09-12T05:21:21;44.85;;;25.92;;
36799;SDS011;22752;51.960;5.886;2022-09-12T05:23:51;39.55;;;23.80;;
36799;SDS011;22752;51.960;5.886;2022-09-12T05:26:17;40.05;;;24.02;;
36799;SDS011;22752;51.960;5.886;2022-09-12T05:28:44;39.63;;;24.02;;
36799;SDS011;22752;51.960;5.886;2022-09-12T05:31:12;35.58;;;24.10;;
36799;SDS011;22752;51.960;5.886;2022-09-12T05:33:47;37.03;;;23.88;;
36799;SDS011;22752;51.960;5.886;2022-09-12T05:36:15;41.25;;;25.13;;
36799;SDS011;22752;51.960;5.886;2022-09-12T05:38:46;44.45;;;25.40;;
36799;SDS011;22752;51.960;5.886;2022-09-12T05:41:13;45.17;;;26.92;;
36799;SDS011;22752;51.960;5.886;2022-09-12T05:43:40;45.00;;;27.00;;
36799;SDS011;22752;51.960;5.886;2022-09-12T05:46:08;43.00;;;26.48;;
36799;SDS011;22752;51.960;5.886;2022-09-12T05:48:36;49.20;;;30.10;;
36799;SDS011;22752;51.960;5.886;2022-09-12T05:51:05;47.58;;;28.25;;
36799;SDS011;22752;51.960;5.886;2022-09-12T05:53:36;43.03;;;27.20;;
36799;SDS011;22752;51.960;5.886;2022-09-12T05:58:57;44.38;;;27.08;;
36799;SDS011;22752;51.960;5.886;2022-09-12T06:01:23;42.20;;;26.25;;
36799;SDS011;22752;51.960;5.886;2022-09-12T06:03:51;46.70;;;27.23;;
36799;SDS011;22752;51.960;5.886;2022-09-12T06:06:19;64.38;;;34.70;;
36799;SDS011;22752;51.960;5.886;2022-09-12T06:08:48;56.38;;;30.63;;
36799;SDS011;22752;51.960;5.886;2022-09-12T06:11:16;55.55;;;31.13;;
36799;SDS011;22752;51.960;5.886;2022-09-12T06:13:47;66.22;;;34.33;;
36799;SDS011;22752;51.960;5.886;2022-09-12T06:16:15;65.25;;;35.95;;
36799;SDS011;22752;51.960;5.886;2022-09-12T06:18:49;73.03;;;39.72;;
36799;SDS011;22752;51.960;5.886;2022-09-12T06:21:17;88.95;;;42.58;;
36799;SDS011;22752;51.960;5.886;2022-09-12T06:23:44;76.32;;;40.78;;
36799;SDS011;22752;51.960;5.886;2022-09-12T06:26:11;69.85;;;37.35;;
36799;SDS011;22752;51.960;5.886;2022-09-12T06:28:38;60.85;;;34.13;;
36799;SDS011;22752;51.960;5.886;2022-09-12T06:31:09;75.13;;;40.60;;
36799;SDS011;22752;51.960;5.886;2022-09-12T06:33:37;72.32;;;37.28;;
36799;SDS011;22752;51.960;5.886;2022-09-12T06:36:11;63.75;;;36.45;;
36799;SDS011;22752;51.960;5.886;2022-09-12T06:38:39;63.00;;;32.92;;
36799;SDS011;22752;51.960;5.886;2022-09-12T06:41:06;58.60;;;32.92;;
36799;SDS011;22752;51.960;5.886;2022-09-12T06:43:35;54.90;;;31.40;;
36799;SDS011;22752;51.960;5.886;2022-09-12T06:46:01;61.28;;;33.25;;
36799;SDS011;22752;51.960;5.886;2022-09-12T06:48:27;72.10;;;37.00;;
36799;SDS011;22752;51.960;5.886;2022-09-12T06:50:54;61.70;;;35.47;;
36799;SDS011;22752;51.960;5.886;2022-09-12T06:53:21;64.82;;;36.50;;
36799;SDS011;22752;51.960;5.886;2022-09-12T06:55:53;68.45;;;34.58;;
36799;SDS011;22752;51.960;5.886;2022-09-12T06:58:26;52.83;;;30.73;;
36799;SDS011;22752;51.960;5.886;2022-09-12T07:00:52;65.00;;;35.15;;
36799;SDS011;22752;51.960;5.886;2022-09-12T07:03:25;66.03;;;37.67;;
36799;SDS011;22752;51.960;5.886;2022-09-12T07:05:51;48.75;;;30.48;;
36799;SDS011;22752;51.960;5.886;2022-09-12T07:08:17;90.75;;;47.67;;
36799;SDS011;22752;51.960;5.886;2022-09-12T07:10:42;72.53;;;37.67;;
36799;SDS011;22752;51.960;5.886;2022-09-12T07:13:08;82.57;;;43.40;;
36799;SDS011;22752;51.960;5.886;2022-09-12T07:15:34;88.25;;;45.03;;
36799;SDS011;22752;51.960;5.886;2022-09-12T07:18:00;72.55;;;42.15;;
36799;SDS011;22752;51.960;5.886;2022-09-12T07:20:26;61.45;;;39.05;;
36799;SDS011;22752;51.960;5.886;2022-09-12T07:22:51;60.53;;;37.17;;
36799;SDS011;22752;51.960;5.886;2022-09-12T07:25:17;55.90;;;34.05;;
36799;SDS011;22752;51.960;5.886;2022-09-12T07:27:43;56.67;;;37.53;;
36799;SDS011;22752;51.960;5.886;2022-09-12T07:30:08;52.95;;;34.80;;
36799;SDS011;22752;51.960;5.886;2022-09-12T07:32:34;60.25;;;38.17;;
36799;SDS011;22752;51.960;5.886;2022-09-12T07:35:00;57.88;;;35.53;;
36799;SDS011;22752;51.960;5.886;2022-09-12T07:37:27;56.35;;;36.33;;
36799;SDS011;22752;51.960;5.886;2022-09-12T07:39:55;59.28;;;36.25;;
36799;SDS011;22752;51.960;5.886;2022-09-12T07:42:21;58.95;;;37.10;;
36799;SDS011;22752;51.960;5.886;2022-09-12T07:44:47;49.33;;;30.95;;
36799;SDS011;22752;51.960;5.886;2022-09-12T07:47:14;55.63;;;35.53;;
36799;SDS011;22752;51.960;5.886;2022-09-12T07:49:39;50.40;;;32.90;;
36799;SDS011;22752;51.960;5.886;2022-09-12T07:52:05;47.40;;;32.30;;
36799;SDS011;22752;51.960;5.886;2022-09-12T07:54:31;49.55;;;32.35;;
36799;SDS011;22752;51.960;5.886;2022-09-12T07:56:57;44.47;;;29.50;;
36799;SDS011;22752;51.960;5.886;2022-09-12T07:59:23;41.97;;;29.65;;
36799;SDS011;22752;51.960;5.886;2022-09-12T08:01:48;40.22;;;28.08;;
36799;SDS011;22752;51.960;5.886;2022-09-12T08:04:14;41.92;;;29.88;;
36799;SDS011;22752;51.960;5.886;2022-09-12T08:06:40;45.08;;;30.70;;
36799;SDS011;22752;51.960;5.886;2022-09-12T08:09:05;40.22;;;27.98;;
36799;SDS011;22752;51.960;5.886;2022-09-12T08:11:32;46.47;;;31.17;;
36799;SDS011;22752;51.960;5.886;2022-09-12T08:13:58;45.20;;;31.02;;
36799;SDS011;22752;51.960;5.886;2022-09-12T08:16:27;42.33;;;28.88;;
36799;SDS011;22752;51.960;5.886;2022-09-12T08:18:55;40.30;;;28.95;;
36799;SDS011;22752;51.960;5.886;2022-09-12T08:21:21;35.72;;;24.63;;
36799;SDS011;22752;51.960;5.886;2022-09-12T08:23:59;41.13;;;27.83;;
36799;SDS011;22752;51.960;5.886;2022-09-12T08:26:27;35.78;;;26.05;;
36799;SDS011;22752;51.960;5.886;2022-09-12T08:28:53;37.17;;;27.38;;
36799;SDS011;22752;51.960;5.886;2022-09-12T08:31:19;40.38;;;28.45;;
36799;SDS011;22752;51.960;5.886;2022-09-12T08:33:46;34.83;;;25.08;;
36799;SDS011;22752;51.960;5.886;2022-09-12T08:36:13;38.17;;;26.33;;
36799;SDS011;22752;51.960;5.886;2022-09-12T08:38:41;41.47;;;27.48;;
36799;SDS011;22752;51.960;5.886;2022-09-12T08:46:27;35.55;;;24.65;;
36799;SDS011;22752;51.960;5.886;2022-09-12T08:48:59;40.45;;;26.85;;
36799;SDS011;22752;51.960;5.886;2022-09-12T08:51:26;33.42;;;23.30;;
36799;SDS011;22752;51.960;5.886;2022-09-12T08:53:55;34.95;;;23.98;;
36799;SDS011;22752;51.960;5.886;2022-09-12T08:56:22;34.10;;;24.30;;
36799;SDS011;22752;51.960;5.886;2022-09-12T08:58:51;33.67;;;22.75;;
36799;SDS011;22752;51.960;5.886;2022-09-12T09:01:26;33.58;;;23.10;;
36799;SDS011;22752;51.960;5.886;2022-09-12T09:12:14;31.17;;;22.30;;
36799;SDS011;22752;51.960;5.886;2022-09-12T09:17:42;28.90;;;20.25;;
36799;SDS011;22752;51.960;5.886;2022-09-12T09:22:50;31.17;;;21.10;;
36799;SDS011;22752;51.960;5.886;2022-09-12T09:25:22;26.40;;;18.90;;
36799;SDS011;22752;51.960;5.886;2022-09-12T09:28:16;28.42;;;19.73;;
36799;SDS011;22752;51.960;5.886;2022-09-12T09:30:54;25.27;;;16.50;;
36799;SDS011;22752;51.960;5.886;2022-09-12T09:33:21;24.67;;;17.48;;
36799;SDS011;22752;51.960;5.886;2022-09-12T09:35:51;23.42;;;16.58;;
36799;SDS011;22752;51.960;5.886;2022-09-12T09:38:49;21.17;;;15.32;;
36799;SDS011;22752;51.960;5.886;2022-09-12T09:44:03;20.38;;;13.75;;
36799;SDS011;22752;51.960;5.886;2022-09-12T09:46:29;20.67;;;14.63;;
36799;SDS011;22752;51.960;5.886;2022-09-12T09:48:56;21.73;;;15.23;;
36799;SDS011;22752;51.960;5.886;2022-09-12T09:51:27;20.95;;;14.27;;
36799;SDS011;22752;51.960;5.886;2022-09-12T09:56:39;18.95;;;13.48;;
36799;SDS011;22752;51.960;5.886;2022-09-12T09:59:26;16.20;;;12.85;;
36799;SDS011;22752;51.960;5.886;2022-09-12T10:04:53;17.95;;;10.68;;
36799;SDS011;22752;51.960;5.886;2022-09-12T10:07:22;13.82;;;10.50;;
36799;SDS011;22752;51.960;5.886;2022-09-12T10:12:38;10.52;;;8.68;;
36799;SDS011;22752;51.960;5.886;2022-09-12T10:15:15;11.02;;;8.18;;
36799;SDS011;22752;51.960;5.886;2022-09-12T10:17:46;13.43;;;8.93;;
36799;SDS011;22752;51.960;5.886;2022-09-12T10:23:01;16.30;;;10.48;;
36799;SDS011;22752;51.960;5.886;2022-09-12T10:25:45;12.32;;;8.88;;
36799;SDS011;22752;51.960;5.886;2022-09-12T10:28:24;10.90;;;8.02;;
36799;SDS011;22752;51.960;5.886;2022-09-12T10:30:59;15.20;;;9.40;;
36799;SDS011;22752;51.960;5.886;2022-09-12T10:33:26;10.77;;;8.50;;
36799;SDS011;22752;51.960;5.886;2022-09-12T10:35:53;11.85;;;8.90;;
36799;SDS011;22752;51.960;5.886;2022-09-12T10:38:26;10.07;;;7.90;;
36799;SDS011;22752;51.960;5.886;2022-09-12T10:41:00;10.65;;;6.68;;
36799;SDS011;22752;51.960;5.886;2022-09-12T10:49:11;13.43;;;9.13;;
36799;SDS011;22752;51.960;5.886;2022-09-12T10:51:43;14.23;;;9.85;;
36799;SDS011;22752;51.960;5.886;2022-09-12T10:54:09;12.60;;;9.23;;
36799;SDS011;22752;51.960;5.886;2022-09-12T10:57:14;11.05;;;9.15;;
36799;SDS011;22752;51.960;5.886;2022-09-12T11:02:20;11.20;;;7.65;;
36799;SDS011;22752;51.960;5.886;2022-09-12T11:05:06;11.27;;;8.15;;
36799;SDS011;22752;51.960;5.886;2022-09-12T11:07:54;8.40;;;7.15;;
36799;SDS011;22752;51.960;5.886;2022-09-12T11:21:47;11.00;;;7.85;;
36799;SDS011;22752;51.960;5.886;2022-09-12T11:24:44;9.38;;;7.63;;
36799;SDS011;22752;51.960;5.886;2022-09-12T11:30:08;15.60;;;6.85;;
36799;SDS011;22752;51.960;5.886;2022-09-12T11:32:48;8.80;;;6.32;;
36799;SDS011;22752;51.960;5.886;2022-09-12T11:35:49;6.30;;;4.85;;
36799;SDS011;22752;51.960;5.886;2022-09-12T11:41:20;9.88;;;4.68;;
36799;SDS011;22752;51.960;5.886;2022-09-12T11:46:43;6.22;;;4.68;;
36799;SDS011;22752;51.960;5.886;2022-09-12T11:49:12;7.57;;;5.25;;
36799;SDS011;22752;51.960;5.886;2022-09-12T11:57:25;8.10;;;6.15;;
36799;SDS011;22752;51.960;5.886;2022-09-12T12:00:16;10.75;;;6.60;;
36799;SDS011;22752;51.960;5.886;2022-09-12T12:05:31;7.90;;;4.60;;
36799;SDS011;22752;51.960;5.886;2022-09-12T12:08:16;6.00;;;5.40;;
36799;SDS011;22752;51.960;5.886;2022-09-12T12:13:21;6.38;;;4.90;;
36799;SDS011;22752;51.960;5.886;2022-09-12T12:15:58;9.57;;;4.80;;
36799;SDS011;22752;51.960;5.886;2022-09-12T12:18:28;10.10;;;4.57;;
36799;SDS011;22752;51.960;5.886;2022-09-12T12:20:56;8.30;;;5.00;;
36799;SDS011;22752;51.960;5.886;2022-09-12T12:36:56;5.80;;;3.55;;
36799;SDS011;22752;51.960;5.886;2022-09-12T12:42:01;4.57;;;3.50;;
36799;SDS011;22752;51.960;5.886;2022-09-12T12:47:20;8.63;;;4.38;;
36799;SDS011;22752;51.960;5.886;2022-09-12T12:49:51;6.10;;;4.30;;
36799;SDS011;22752;51.960;5.886;2022-09-12T12:52:21;5.43;;;3.45;;
36799;SDS011;22752;51.960;5.886;2022-09-12T12:54:49;5.55;;;4.25;;
36799;SDS011;22752;51.960;5.886;2022-09-12T12:57:22;5.13;;;3.80;;
36799;SDS011;22752;51.960;5.886;2022-09-12T13:00:00;8.25;;;3.97;;
36799;SDS011;22752;51.960;5.886;2022-09-12T13:02:40;6.50;;;4.18;;
36799;SDS011;22752;51.960;5.886;2022-09-12T13:05:36;7.53;;;4.95;;
36799;SDS011;22752;51.960;5.886;2022-09-12T13:08:25;7.88;;;5.05;;
36799;SDS011;22752;51.960;5.886;2022-09-12T13:10:58;6.78;;;5.07;;
36799;SDS011;22752;51.960;5.886;2022-09-12T13:13:29;6.20;;;4.10;;
36799;SDS011;22752;51.960;5.886;2022-09-12T13:15:56;6.72;;;5.00;;
36799;SDS011;22752;51.960;5.886;2022-09-12T13:18:26;4.80;;;4.07;;
36799;SDS011;22752;51.960;5.886;2022-09-12T13:21:10;5.03;;;3.60;;
36799;SDS011;22752;51.960;5.886;2022-09-12T13:23:41;5.53;;;4.13;;
36799;SDS011;22752;51.960;5.886;2022-09-12T13:26:09;5.70;;;4.00;;
36799;SDS011;22752;51.960;5.886;2022-09-12T13:28:36;4.25;;;3.45;;
36799;SDS011;22752;51.960;5.886;2022-09-12T13:31:17;3.25;;;2.95;;
36799;SDS011;22752;51.960;5.886;2022-09-12T13:33:55;3.35;;;2.70;;
36799;SDS011;22752;51.960;5.886;2022-09-12T13:44:23;3.90;;;3.40;;
36799;SDS011;22752;51.960;5.886;2022-09-12T13:46:51;8.65;;;4.25;;
36799;SDS011;22752;51.960;5.886;2022-09-12T13:49:21;4.97;;;3.67;;
36799;SDS011;22752;51.960;5.886;2022-09-12T13:52:08;7.47;;;3.35;;
36799;SDS011;22752;51.960;5.886;2022-09-12T13:54:42;7.63;;;2.85;;
36799;SDS011;22752;51.960;5.886;2022-09-12T13:59:58;4.20;;;3.28;;
36799;SDS011;22752;51.960;5.886;2022-09-12T14:02:27;4.13;;;2.67;;
36799;SDS011;22752;51.960;5.886;2022-09-12T14:04:54;3.45;;;2.75;;
36799;SDS011;22752;51.960;5.886;2022-09-12T14:07:33;2.70;;;2.42;;
36799;SDS011;22752;51.960;5.886;2022-09-12T14:10:19;4.28;;;2.97;;
36799;SDS011;22752;51.960;5.886;2022-09-12T14:13:03;4.47;;;2.97;;
36799;SDS011;22752;51.960;5.886;2022-09-12T14:15:46;2.97;;;2.60;;
36799;SDS011;22752;51.960;5.886;2022-09-12T14:18:24;5.63;;;3.15;;
36799;SDS011;22752;51.960;5.886;2022-09-12T14:20:52;5.20;;;2.90;;
36799;SDS011;22752;51.960;5.886;2022-09-12T14:23:27;5.63;;;3.30;;
36799;SDS011;22752;51.960;5.886;2022-09-12T14:25:59;4.18;;;3.17;;
36799;SDS011;22752;51.960;5.886;2022-09-12T14:28:27;4.40;;;3.13;;
36799;SDS011;22752;51.960;5.886;2022-09-12T14:31:04;6.80;;;2.90;;
36799;SDS011;22752;51.960;5.886;2022-09-12T14:33:46;4.63;;;3.42;;
36799;SDS011;22752;51.960;5.886;2022-09-12T14:36:21;5.03;;;3.40;;
36799;SDS011;22752;51.960;5.886;2022-09-12T14:38:48;3.83;;;2.97;;
36799;SDS011;22752;51.960;5.886;2022-09-12T14:41:21;4.90;;;3.40;;
36799;SDS011;22752;51.960;5.886;2022-09-12T14:43:51;3.55;;;3.15;;
36799;SDS011;22752;51.960;5.886;2022-09-12T14:46:37;9.95;;;3.30;;
36799;SDS011;22752;51.960;5.886;2022-09-12T14:49:06;3.70;;;2.67;;
36799;SDS011;22752;51.960;5.886;2022-09-12T14:51:34;4.68;;;3.28;;
36799;SDS011;22752;51.960;5.886;2022-09-12T14:56:56;3.58;;;2.42;;
36799;SDS011;22752;51.960;5.886;2022-09-12T15:05:29;4.53;;;2.40;;
36799;SDS011;22752;51.960;5.886;2022-09-12T15:07:36;4.97;;;2.78;;
36799;SDS011;22752;51.960;5.886;2022-09-12T15:10:15;2.22;;;2.03;;
36799;SDS011;22752;51.960;5.886;2022-09-12T15:15:33;3.40;;;2.60;;
36799;SDS011;22752;51.960;5.886;2022-09-12T15:17:59;2.72;;;2.50;;
36799;SDS011;22752;51.960;5.886;2022-09-12T15:20:25;3.13;;;2.10;;
36799;SDS011;22752;51.960;5.886;2022-09-12T15:22:51;2.20;;;2.00;;
36799;SDS011;22752;51.960;5.886;2022-09-12T15:25:17;2.42;;;2.20;;
36799;SDS011;22752;51.960;5.886;2022-09-12T15:27:45;3.97;;;2.78;;
36799;SDS011;22752;51.960;5.886;2022-09-12T15:30:11;3.15;;;2.75;;
36799;SDS011;22752;51.960;5.886;2022-09-12T15:32:38;3.40;;;2.38;;
36799;SDS011;22752;51.960;5.886;2022-09-12T15:35:21;3.00;;;2.22;;
36799;SDS011;22752;51.960;5.886;2022-09-12T15:37:48;2.63;;;2.22;;
36799;SDS011;22752;51.960;5.886;2022-09-12T15:40:14;2.97;;;2.47;;
36799;SDS011;22752;51.960;5.886;2022-09-12T15:42:40;3.20;;;2.55;;
36799;SDS011;22752;51.960;5.886;2022-09-12T15:45:17;3.95;;;2.40;;
36799;SDS011;22752;51.960;5.886;2022-09-12T15:47:46;5.70;;;2.47;;
36799;SDS011;22752;51.960;5.886;2022-09-12T15:50:11;2.83;;;2.40;;
36799;SDS011;22752;51.960;5.886;2022-09-12T15:52:38;3.58;;;2.67;;
36799;SDS011;22752;51.960;5.886;2022-09-12T15:55:04;2.92;;;2.35;;
36799;SDS011;22752;51.960;5.886;2022-09-12T15:57:34;4.20;;;3.10;;
36799;SDS011;22752;51.960;5.886;2022-09-12T15:59:59;2.72;;;2.50;;
36799;SDS011;22752;51.960;5.886;2022-09-12T16:02:25;4.07;;;2.60;;
36799;SDS011;22752;51.960;5.886;2022-09-12T16:04:51;2.92;;;2.33;;
36799;SDS011;22752;51.960;5.886;2022-09-12T16:07:19;8.00;;;3.42;;
36799;SDS011;22752;51.960;5.886;2022-09-12T16:09:44;6.15;;;3.47;;
36799;SDS011;22752;51.960;5.886;2022-09-12T16:12:10;7.18;;;3.85;;
36799;SDS011;22752;51.960;5.886;2022-09-12T16:14:36;4.10;;;3.22;;
36799;SDS011;22752;51.960;5.886;2022-09-12T16:17:02;2.80;;;2.60;;
36799;SDS011;22752;51.960;5.886;2022-09-12T16:19:27;3.55;;;2.88;;
36799;SDS011;22752;51.960;5.886;2022-09-12T16:21:53;2.70;;;2.45;;
36799;SDS011;22752;51.960;5.886;2022-09-12T16:24:19;3.08;;;2.70;;
36799;SDS011;22752;51.960;5.886;2022-09-12T16:26:44;4.70;;;3.28;;
36799;SDS011;22752;51.960;5.886;2022-09-12T16:29:11;5.25;;;3.08;;
36799;SDS011;22752;51.960;5.886;2022-09-12T16:31:38;3.47;;;3.00;;
36799;SDS011;22752;51.960;5.886;2022-09-12T16:34:04;4.28;;;3.00;;
36799;SDS011;22752;51.960;5.886;2022-09-12T16:36:30;3.10;;;2.80;;
36799;SDS011;22752;51.960;5.886;2022-09-12T16:38:56;8.60;;;3.65;;
36799;SDS011;22752;51.960;5.886;2022-09-12T16:41:22;3.50;;;3.20;;
36799;SDS011;22752;51.960;5.886;2022-09-12T16:43:49;4.72;;;2.90;;
36799;SDS011;22752;51.960;5.886;2022-09-12T16:46:16;3.38;;;2.90;;
36799;SDS011;22752;51.960;5.886;2022-09-12T16:48:44;3.75;;;3.13;;
36799;SDS011;22752;51.960;5.886;2022-09-12T16:51:12;3.08;;;2.50;;
36799;SDS011;22752;51.960;5.886;2022-09-12T16:53:39;3.88;;;2.72;;
36799;SDS011;22752;51.960;5.886;2022-09-12T16:56:06;5.28;;;3.00;;
36799;SDS011;22752;51.960;5.886;2022-09-12T16:58:36;5.80;;;2.85;;
36799;SDS011;22752;51.960;5.886;2022-09-12T17:01:06;2.50;;;2.20;;
36799;SDS011;22752;51.960;5.886;2022-09-12T17:03:33;3.03;;;2.20;;
36799;SDS011;22752;51.960;5.886;2022-09-12T17:06:11;4.57;;;2.25;;
36799;SDS011;22752;51.960;5.886;2022-09-12T17:08:42;6.55;;;2.97;;
36799;SDS011;22752;51.960;5.886;2022-09-12T17:11:13;2.78;;;2.50;;
36799;SDS011;22752;51.960;5.886;2022-09-12T17:13:41;4.57;;;2.80;;
36799;SDS011;22752;51.960;5.886;2022-09-12T17:16:11;6.22;;;2.88;;
36799;SDS011;22752;51.960;5.886;2022-09-12T17:18:37;3.13;;;2.53;;
36799;SDS011;22752;51.960;5.886;2022-09-12T17:21:04;3.50;;;2.20;;